Timblin, Pennsylvania
Current Conditions -  °F | °C
As of 5:53 AM on Monday 20 Oct 2014 (Local Time) from KDUJ Reporting Station
Broken Clouds Broken Clouds  
Wind Chill: 37°   Ceiling: 12000
Heat Index: 40°   Visibility: 10mi
Dew Point: 34°   Wind: 5mph
Humidity: 79%   Direction: 220°SW
Pressure: 30"   Gusts: NA
Location:  40.97°N, 79.2°W
Report Text: KDUJ 200953Z AUTO 22004KT 10SM BKN120 04/01 A3000 RMK AO2 SLP167 T00440011
Loading
Personal Weather Stations






























Interactive Weather Map
Tropical Storm Tracking
New forecast layout! Learn more

10-Day Weather Forecast

Advertisements
Track Severe Weather on mobile